Time;durP1;ratioP1;P1;durP2;ratioP2;P2;SDS_P1;SDS_P2;PMS_P1;PMS_P2;Temp;Humidity;BMP_temperature;BMP_pressure;BME280_temperature;BME280_humidity;BME280_pressure;Samples;Min_cycle;Max_cycle;Signal;HPM_P1;HPM_P2
2021/03/28 00:02:20;;;;;;;9.00;3.20;;;7.00;86.60;;;;;;5053257;28;20111;-36
2021/03/28 00:04:58;;;;;;;10.18;3.03;;;7.00;86.60;;;;;;5063707;28;20027;-35
2021/03/28 00:07:42;;;;;;;7.80;3.15;;;7.00;86.70;;;;;;5061684;28;20115;-37
2021/03/28 00:10:23;;;;;;;7.95;3.50;;;7.00;86.80;;;;;;5062548;28;20059;-33
2021/03/28 00:12:58;;;;;;;8.50;3.08;;;6.90;86.80;;;;;;5063878;28;20039;-38
2021/03/28 00:15:26;;;;;;;6.70;2.85;;;6.90;86.90;;;;;;5063851;28;20054;-42
2021/03/28 00:18:21;;;;;;;9.00;2.83;;;6.80;87.00;;;;;;5063699;28;20044;-39
2021/03/28 00:20:49;;;;;;;8.18;2.97;;;6.80;87.20;;;;;;5063820;28;20044;-38
2021/03/28 00:23:22;;;;;;;9.52;3.50;;;6.70;87.30;;;;;;5064308;28;20515;-38
2021/03/28 00:26:04;;;;;;;7.13;3.13;;;6.70;87.50;;;;;;5063078;28;20834;-35
2021/03/28 00:28:38;;;;;;;9.73;3.30;;;6.70;87.50;;;;;;5064221;28;20107;-35
2021/03/28 00:31:22;;;;;;;8.55;3.00;;;6.80;87.60;;;;;;5063448;28;20388;-33
2021/03/28 00:34:03;;;;;;;7.63;2.70;;;6.80;87.60;;;;;;5063279;28;20181;-37
2021/03/28 00:37:00;;;;;;;9.45;3.05;;;6.80;87.60;;;;;;5063691;28;20048;-37
2021/03/28 00:39:40;;;;;;;6.53;2.78;;;6.70;87.70;;;;;;5064896;28;20032;-35
2021/03/28 00:42:23;;;;;;;7.80;3.13;;;6.70;87.80;;;;;;5066984;28;20021;-36
2021/03/28 00:44:52;;;;;;;6.57;2.63;;;6.70;87.90;;;;;;5047153;28;20075;-34
2021/03/28 00:47:29;;;;;;;10.38;3.35;;;6.70;88.00;;;;;;5062564;28;20097;-34
2021/03/28 00:50:24;;;;;;;9.10;3.00;;;6.70;88.80;;;;;;5067241;28;20024;-36
2021/03/28 00:53:00;;;;;;;6.97;2.90;;;6.70;88.10;;;;;;5055694;28;20106;-38
2021/03/28 00:55:30;;;;;;;12.05;3.00;;;6.70;88.20;;;;;;5067306;28;20036;-39
2021/03/28 00:58:16;;;;;;;9.73;3.10;;;6.70;88.20;;;;;;5066785;28;20112;-35
2021/03/28 01:01:02;;;;;;;8.15;3.10;;;6.80;88.40;;;;;;5067046;28;20044;-34
2021/03/28 01:03:45;;;;;;;5.93;2.63;;;6.80;88.30;;;;;;5066909;28;20487;-36
2021/03/28 01:06:34;;;;;;;11.38;4.25;;;6.80;88.30;;;;;;5067065;28;20487;-41
2021/03/28 01:09:27;;;;;;;6.85;2.90;;;6.80;88.40;;;;;;5060035;28;20024;-37
2021/03/28 01:12:25;;;;;;;10.00;3.30;;;6.90;88.50;;;;;;5066923;28;20633;-37
2021/03/28 01:15:19;;;;;;;10.43;4.13;;;6.90;88.50;;;;;;5058553;28;20071;-35
2021/03/28 01:18:09;;;;;;;10.43;3.88;;;6.90;88.80;;;;;;5066920;28;20123;-37
2021/03/28 01:20:50;;;;;;;9.45;3.80;;;6.90;88.80;;;;;;5066220;28;20528;-38
2021/03/28 01:23:32;;;;;;;8.88;3.75;;;6.90;88.90;;;;;;5067027;28;20486;-35
2021/03/28 01:26:12;;;;;;;12.07;4.25;;;6.90;89.00;;;;;;5066766;28;20333;-34
2021/03/28 01:29:15;;;;;;;11.07;4.50;;;6.90;89.10;;;;;;5065568;28;20036;-33
2021/03/28 01:31:54;;;;;;;12.20;4.85;;;6.90;89.30;;;;;;5046389;28;20040;-35
2021/03/28 01:34:29;;;;;;;14.93;5.68;;;6.90;89.70;;;;;;5066375;28;20094;-35
2021/03/28 01:37:33;;;;;;;17.52;5.45;;;6.90;90.30;;;;;;5066402;28;20546;-35
2021/03/28 01:40:20;;;;;;;12.48;5.13;;;6.80;90.20;;;;;;5064108;28;20111;-35
2021/03/28 01:42:57;;;;;;;13.32;4.68;;;6.80;90.30;;;;;;5066060;28;20031;-35
2021/03/28 01:45:34;;;;;;;11.90;4.78;;;6.70;90.40;;;;;;5066508;28;20025;-34
2021/03/28 01:48:28;;;;;;;11.60;4.40;;;6.70;90.80;;;;;;5066178;28;20024;-40
2021/03/28 01:51:30;;;;;;;13.07;4.40;;;6.70;90.80;;;;;;5056308;28;20105;-34
2021/03/28 01:54:20;;;;;;;9.95;4.60;;;6.70;90.80;;;;;;5066165;28;20055;-35
2021/03/28 01:57:16;;;;;;;12.00;4.70;;;6.70;91.10;;;;;;5065854;28;20035;-34
2021/03/28 02:00:10;;;;;;;12.15;4.28;;;6.70;91.10;;;;;;5065405;28;20563;-37
2021/03/28 02:02:41;;;;;;;;;;;6.70;91.10;;;;;;5046697;28;20025;-37
2021/03/28 02:05:33;;;;;;;12.32;3.78;;;6.60;91.40;;;;;;5062761;28;20031;-36
2021/03/28 02:08:27;;;;;;;11.43;4.00;;;6.60;91.20;;;;;;5066231;28;20036;-32
2021/03/28 02:11:32;;;;;;;9.32;3.65;;;6.60;91.30;;;;;;5062053;28;20542;-34
2021/03/28 02:14:22;;;;;;;11.70;3.20;;;6.60;91.40;;;;;;5065731;28;20432;-38
2021/03/28 02:17:03;;;;;;;9.00;3.30;;;6.60;91.30;;;;;;5056607;28;20068;-37
2021/03/28 02:19:34;;;;;;;10.38;3.45;;;6.60;91.30;;;;;;5065765;28;20094;-36
2021/03/28 02:22:28;;;;;;;11.20;3.38;;;6.70;91.30;;;;;;5065787;28;20090;-38
2021/03/28 02:25:22;;;;;;;9.05;2.80;;;6.70;91.50;;;;;;5065198;28;20029;-35
2021/03/28 02:27:51;;;;;;;;;;;6.70;91.40;;;;;;5065999;28;20510;-36
2021/03/28 02:30:22;;;;;;;9.95;3.08;;;6.70;91.50;;;;;;5065356;28;19904;-38
2021/03/28 02:32:56;;;;;;;13.60;3.50;;;6.70;91.50;;;;;;5065198;28;20399;-37
2021/03/28 02:35:59;;;;;;;9.15;3.15;;;6.70;91.80;;;;;;5065644;28;20039;-33
2021/03/28 02:38:46;;;;;;;9.00;3.20;;;6.70;91.70;;;;;;5064850;28;20041;-36
2021/03/28 02:41:44;;;;;;;12.05;3.50;;;6.70;91.90;;;;;;5065571;28;20059;-36
2021/03/28 02:44:34;;;;;;;10.40;3.17;;;6.70;91.90;;;;;;5034960;28;20064;-37
2021/03/28 02:47:26;;;;;;;8.65;2.47;;;6.70;91.80;;;;;;5063940;28;20427;-33
2021/03/28 02:50:21;;;;;;;7.95;2.72;;;6.70;92.00;;;;;;5065455;28;20059;-37
2021/03/28 02:52:57;;;;;;;12.20;2.85;;;6.80;91.90;;;;;;5054445;28;20033;-38
2021/03/28 02:55:46;;;;;;;9.52;3.05;;;6.80;92.20;;;;;;5065074;28;20060;-38
2021/03/28 02:58:20;;;;;;;12.77;2.92;;;6.80;92.10;;;;;;5057178;28;20055;-34
2021/03/28 03:01:16;;;;;;;11.75;3.13;;;6.80;92.20;;;;;;5064630;28;20097;-36
2021/03/28 03:04:12;;;;;;;7.70;2.35;;;6.80;92.20;;;;;;5065064;28;20076;-33
2021/03/28 03:07:05;;;;;;;8.23;2.70;;;6.80;92.40;;;;;;5064566;28;20020;-39
2021/03/28 03:09:58;;;;;;;10.02;2.40;;;6.80;92.20;;;;;;5064601;28;20064;-36
2021/03/28 03:12:49;;;;;;;9.88;2.90;;;6.80;92.10;;;;;;5064686;28;20072;-39
2021/03/28 03:15:28;;;;;;;9.48;2.50;;;6.80;92.10;;;;;;5064734;28;20532;-37
2021/03/28 03:18:31;;;;;;;8.48;2.50;;;6.80;92.10;;;;;;5064638;28;20028;-39
2021/03/28 03:20:57;;;;;;;7.97;2.65;;;6.80;92.10;;;;;;5064215;28;20103;-38
2021/03/28 03:24:06;;;;;;;9.43;2.60;;;6.80;92.20;;;;;;5064960;28;20505;-38
2021/03/28 03:26:43;;;;;;;8.98;3.17;;;6.80;92.20;;;;;;5064728;28;20187;-38
2021/03/28 03:29:21;;;;;;;6.00;2.33;;;6.80;92.50;;;;;;5064260;28;20033;-36
2021/03/28 03:32:08;;;;;;;8.63;3.15;;;6.80;92.40;;;;;;5064223;28;20037;-33
2021/03/28 03:35:03;;;;;;;7.82;2.40;;;6.80;92.50;;;;;;5064207;28;20093;-35
2021/03/28 03:37:46;;;;;;;8.80;2.70;;;6.80;92.40;;;;;;5064185;28;20074;-38
2021/03/28 03:40:32;;;;;;;10.02;2.63;;;6.80;92.50;;;;;;5065227;28;20025;-39
2021/03/28 03:43:12;;;;;;;9.10;2.25;;;6.80;92.60;;;;;;5063995;28;20114;-37
2021/03/28 03:46:01;;;;;;;10.30;1.98;;;6.80;92.50;;;;;;5064172;28;20118;-33
2021/03/28 03:48:39;;;;;;;11.32;2.90;;;6.70;92.40;;;;;;5063981;28;20094;-36
2021/03/28 03:51:23;;;;;;;8.35;2.28;;;6.70;92.50;;;;;;5044849;28;20111;-32
2021/03/28 03:54:10;;;;;;;9.75;2.60;;;6.70;92.50;;;;;;5061726;28;20032;-34
2021/03/28 03:57:06;;;;;;;10.88;2.25;;;6.70;92.70;;;;;;5064170;28;20036;-37
2021/03/28 03:59:47;;;;;;;7.75;2.50;;;6.80;92.70;;;;;;5061700;28;20100;-38
2021/03/28 04:02:41;;;;;;;12.15;2.90;;;6.80;92.60;;;;;;5064352;28;20032;-36
2021/03/28 04:05:36;;;;;;;7.30;2.60;;;6.90;92.80;;;;;;5053254;28;20128;-36
2021/03/28 04:08:43;;;;;;;9.15;2.90;;;6.90;92.70;;;;;;5064041;28;20029;-39
2021/03/28 04:11:08;;;;;;;9.98;3.33;;;6.90;92.60;;;;;;5044115;28;20496;-34
2021/03/28 04:13:49;;;;;;;9.82;2.40;;;7.00;92.60;;;;;;5056714;28;20038;-38
2021/03/28 04:16:54;;;;;;;10.60;2.63;;;7.00;92.50;;;;;;5068637;28;20036;-38
2021/03/28 04:19:31;;;;;;;5.70;2.50;;;7.00;92.50;;;;;;5068480;28;20036;-36
2021/03/28 04:22:25;;;;;;;9.73;2.47;;;7.00;92.50;;;;;;5068017;28;20065;-38
2021/03/28 04:24:58;;;;;;;7.28;2.30;;;7.00;92.50;;;;;;5067460;28;20044;-37
2021/03/28 04:27:30;;;;;;;10.07;2.67;;;7.10;92.50;;;;;;5068280;28;20028;-36
2021/03/28 04:29:55;;;;;;;7.05;2.55;;;7.10;92.50;;;;;;5067786;28;20134;-38
2021/03/28 04:32:47;;;;;;;7.93;2.75;;;7.10;92.60;;;;;;5068050;28;20130;-37
2021/03/28 04:35:25;;;;;;;8.82;2.80;;;7.10;92.60;;;;;;5067798;28;20040;-38
2021/03/28 04:38:21;;;;;;;5.18;2.13;;;7.10;92.50;;;;;;5067950;28;20594;-39
2021/03/28 04:41:15;;;;;;;13.32;2.60;;;7.20;92.50;;;;;;5066758;28;20028;-36
2021/03/28 04:44:01;;;;;;;9.55;3.10;;;7.10;92.60;;;;;;5067446;28;20033;-38
2021/03/28 04:46:49;;;;;;;8.73;2.92;;;7.20;92.50;;;;;;5067320;28;20035;-35
2021/03/28 04:49:39;;;;;;;9.15;2.65;;;7.20;92.50;;;;;;5068201;28;20024;-36
2021/03/28 04:52:42;;;;;;;8.82;2.42;;;7.20;92.50;;;;;;5067070;28;20025;-37
2021/03/28 04:55:46;;;;;;;7.95;3.13;;;7.20;92.60;;;;;;5067431;28;20085;-37
2021/03/28 04:58:45;;;;;;;10.55;2.58;;;7.20;92.50;;;;;;5047414;28;20025;-36
2021/03/28 05:01:56;;;;;;;9.13;3.00;;;7.20;92.60;;;;;;5066263;28;20388;-39
2021/03/28 05:04:36;;;;;;;7.05;2.40;;;7.20;92.60;;;;;;5034204;28;20063;-36
2021/03/28 05:07:20;;;;;;;10.65;3.70;;;7.20;92.60;;;;;;5067012;28;20012;-37
2021/03/28 05:10:00;;;;;;;7.05;2.60;;;7.20;92.60;;;;;;5066806;28;20124;-38
2021/03/28 05:12:44;;;;;;;6.05;2.70;;;7.20;92.70;;;;;;5056560;28;20032;-35
2021/03/28 05:15:42;;;;;;;8.88;2.40;;;7.30;92.70;;;;;;5067395;28;20427;-38
2021/03/28 05:18:43;;;;;;;10.05;2.38;;;7.20;92.60;;;;;;5067064;28;20036;-35
2021/03/28 05:21:58;;;;;;;9.43;2.47;;;7.30;92.80;;;;;;5066139;28;20040;-36
2021/03/28 05:24:51;;;;;;;7.43;2.78;;;7.30;92.70;;;;;;5046649;28;20071;-36
2021/03/28 05:27:26;;;;;;;;;;;7.30;92.80;;;;;;5065705;28;20103;-37
2021/03/28 05:30:53;;;;;;;8.57;2.92;;;7.30;92.70;;;;;;5067125;28;19955;-38
2021/03/28 05:33:30;;;;;;;7.05;2.33;;;7.40;92.60;;;;;;5015353;28;20052;-37
2021/03/28 05:36:24;;;;;;;5.63;2.22;;;7.40;92.60;;;;;;5023274;28;20041;-38
2021/03/28 05:38:55;;;;;;;6.78;2.00;;;7.40;92.50;;;;;;5061886;28;20039;-36
2021/03/28 05:41:37;;;;;;;8.05;2.35;;;7.40;92.50;;;;;;5066159;28;20036;-38
2021/03/28 05:44:16;;;;;;;6.75;2.13;;;7.50;92.70;;;;;;5066578;28;20063;-39
2021/03/28 05:47:09;;;;;;;6.78;2.30;;;7.50;92.60;;;;;;5066205;28;20023;-35
2021/03/28 05:49:50;;;;;;;6.63;1.92;;;7.50;92.50;;;;;;5065974;28;20052;-35
2021/03/28 05:52:35;;;;;;;6.07;2.10;;;7.60;92.50;;;;;;5066661;28;20032;-37
2021/03/28 05:55:19;;;;;;;5.82;2.20;;;7.60;92.60;;;;;;5065798;28;20510;-37
2021/03/28 05:58:08;;;;;;;7.50;2.20;;;7.70;92.50;;;;;;5065827;28;20719;-36
2021/03/28 06:00:49;;;;;;;7.15;2.50;;;7.70;92.50;;;;;;5046211;28;20123;-35
2021/03/28 06:03:45;;;;;;;6.70;1.90;;;7.70;92.40;;;;;;5064082;28;20042;-36
2021/03/28 06:06:52;;;;;;;8.82;2.30;;;7.80;92.40;;;;;;5066040;28;20021;-38
2021/03/28 06:09:29;;;;;;;8.45;2.25;;;7.80;92.40;;;;;;5055318;28;20043;-35
2021/03/28 06:12:32;;;;;;;6.93;2.33;;;7.90;92.30;;;;;;5065745;28;20025;-35
2021/03/28 06:15:35;;;;;;;8.23;2.78;;;7.90;92.30;;;;;;5058976;28;20079;-36
2021/03/28 06:18:30;;;;;;;8.02;2.60;;;8.00;92.30;;;;;;5065329;28;20119;-37
2021/03/28 06:21:36;;;;;;;9.45;3.97;;;8.10;92.30;;;;;;5065512;28;20035;-36
2021/03/28 06:24:08;;;;;;;6.00;2.58;;;8.10;92.20;;;;;;5063268;28;20109;-38
2021/03/28 06:27:08;;;;;;;5.30;2.03;;;8.10;92.20;;;;;;5065307;28;20469;-36
2021/03/28 06:29:42;;;;;;;8.20;2.60;;;8.20;92.10;;;;;;5065345;28;20063;-34
2021/03/28 06:32:10;;;;;;;12.65;3.30;;;8.30;92.10;;;;;;5063687;28;20032;-38
2021/03/28 06:35:11;;;;;;;7.78;2.40;;;8.30;92.10;;;;;;5065299;28;20041;-36
2021/03/28 06:38:13;;;;;;;6.28;2.00;;;8.30;92.00;;;;;;5064718;28;20039;-36
2021/03/28 06:40:58;;;;;;;7.18;2.30;;;8.40;92.00;;;;;;5057388;28;20113;-37
2021/03/28 06:43:42;;;;;;;4.97;1.88;;;8.40;91.90;;;;;;5065428;28;20115;-36
2021/03/28 06:46:27;;;;;;;6.15;2.30;;;8.50;91.90;;;;;;5064704;28;20040;-32
2021/03/28 06:49:34;;;;;;;6.70;2.10;;;8.50;91.80;;;;;;5065036;28;20044;-37
2021/03/28 06:52:17;;;;;;;6.93;2.67;;;8.40;91.90;;;;;;5044855;28;20083;-37
2021/03/28 06:54:57;;;;;;;7.65;2.42;;;8.50;91.90;;;;;;5061758;28;20081;-37
2021/03/28 06:57:49;;;;;;;10.23;2.67;;;8.50;91.80;;;;;;5045475;28;20045;-36
2021/03/28 07:00:43;;;;;;;8.38;2.42;;;8.40;91.80;;;;;;5064255;28;20029;-37
2021/03/28 07:03:14;;;;;;;8.20;2.72;;;8.40;91.90;;;;;;5064882;28;20109;-35
2021/03/28 07:06:17;;;;;;;7.35;2.58;;;8.30;92.00;;;;;;5064149;28;20029;-37
2021/03/28 07:08:57;;;;;;;9.40;3.20;;;8.30;92.10;;;;;;5064999;28;20055;-34
2021/03/28 07:11:37;;;;;;;8.30;2.63;;;8.30;92.20;;;;;;5065260;28;20054;-36
2021/03/28 07:14:55;;;;;;;6.97;2.55;;;8.40;92.30;;;;;;5064846;28;20538;-38
2021/03/28 07:17:56;;;;;;;5.78;2.47;;;8.50;92.10;;;;;;5040805;28;20048;-38
2021/03/28 07:20:33;;;;;;;8.52;2.78;;;8.70;92.00;;;;;;5059251;28;20043;-37
2021/03/28 07:23:25;;;;;;;7.18;2.60;;;8.80;91.80;;;;;;5064799;28;20028;-37
2021/03/28 07:26:00;;;;;;;7.10;2.40;;;8.90;91.60;;;;;;5064533;28;20028;-34
2021/03/28 07:28:51;;;;;;;5.65;2.58;;;9.00;91.50;;;;;;5061136;28;20124;-37
2021/03/28 07:31:41;;;;;;;5.50;2.30;;;9.10;91.40;;;;;;5062685;28;20089;-36
2021/03/28 07:34:44;;;;;;;4.32;2.60;;;9.30;91.30;;;;;;5063267;28;20039;-37
2021/03/28 07:37:25;;;;;;;9.07;2.90;;;9.30;91.20;;;;;;5064350;28;20024;-35
2021/03/28 07:40:24;;;;;;;9.00;3.75;;;9.40;91.10;;;;;;5063842;28;20430;-35
2021/03/28 07:43:09;;;;;;;5.95;2.45;;;9.50;91.10;;;;;;5057248;28;20353;-36
2021/03/28 07:45:56;;;;;;;6.47;2.78;;;9.60;91.00;;;;;;5063289;28;20395;-38
2021/03/28 07:48:48;;;;;;;6.10;2.42;;;9.70;90.90;;;;;;5066468;28;20031;-40
2021/03/28 07:51:53;;;;;;;6.45;2.28;;;9.80;90.70;;;;;;5068191;28;20114;-38
2021/03/28 07:54:43;;;;;;;8.82;2.90;;;9.80;90.70;;;;;;5048259;28;20200;-37
2021/03/28 07:57:33;;;;;;;7.85;2.60;;;9.90;90.50;;;;;;5067827;28;20424;-40
2021/03/28 08:00:24;;;;;;;7.18;2.53;;;10.00;90.50;;;;;;5067819;28;20078;-35
2021/03/28 08:03:00;;;;;;;9.20;3.13;;;10.00;90.40;;;;;;5067471;28;20487;-37
2021/03/28 08:05:48;;;;;;;6.43;2.83;;;10.00;90.40;;;;;;5067761;28;20623;-38
2021/03/28 08:08:32;;;;;;;9.77;2.92;;;9.90;90.50;;;;;;5057657;28;20471;-38
2021/03/28 08:11:22;;;;;;;9.52;3.08;;;9.80;90.50;;;;;;5067820;28;20032;-37
2021/03/28 08:14:01;;;;;;;12.05;3.42;;;9.80;90.80;;;;;;5059796;28;20021;-38
2021/03/28 08:16:56;;;;;;;10.73;4.32;;;9.80;90.90;;;;;;5067048;28;20032;-37
2021/03/28 08:19:59;;;;;;;6.72;3.05;;;9.80;91.10;;;;;;5062542;28;20033;-37
2021/03/28 08:22:59;;;;;;;10.00;2.85;;;9.90;91.10;;;;;;5061500;28;20024;-37
2021/03/28 08:25:34;;;;;;;6.80;2.75;;;9.90;91.20;;;;;;5071414;28;20068;-38
2021/03/28 08:28:30;;;;;;;7.82;2.90;;;10.00;91.20;;;;;;5065067;28;20068;-36
2021/03/28 08:31:19;;;;;;;9.82;3.65;;;10.00;91.20;;;;;;5066832;28;20226;-38
2021/03/28 08:34:15;;;;;;;10.60;3.40;;;10.00;91.20;;;;;;5067051;28;20162;-38
2021/03/28 08:37:29;;;;;;;9.43;3.05;;;10.10;91.10;;;;;;5072158;28;20040;-37
2021/03/28 08:40:07;;;;;;;;;;;10.20;91.10;;;;;;5061788;28;20021;-37
2021/03/28 08:43:10;;;;;;;5.25;2.67;;;10.30;91.00;;;;;;5066692;28;19964;-37
2021/03/28 08:46:14;;;;;;;10.45;2.80;;;10.40;91.00;;;;;;5067529;28;20036;-35
2021/03/28 08:48:46;;;;;;;7.07;3.00;;;10.50;90.90;;;;;;5076704;28;20105;-39
2021/03/28 08:51:28;;;;;;;7.72;2.92;;;10.50;90.80;;;;;;5081158;28;20572;-45
2021/03/28 08:54:34;;;;;;;9.60;3.13;;;10.70;90.70;;;;;;5067190;28;20038;-40
2021/03/28 08:57:18;;;;;;;11.00;3.35;;;10.90;90.60;;;;;;5076584;28;20028;-39
2021/03/28 09:00:08;;;;;;;10.25;3.15;;;11.10;90.40;;;;;;5065661;28;20062;-38
2021/03/28 09:02:53;;;;;;;7.82;2.70;;;11.30;90.20;;;;;;5063312;28;20064;-42
2021/03/28 09:05:44;;;;;;;10.57;3.08;;;11.40;89.10;;;;;;5064699;28;20115;-37
2021/03/28 09:08:14;;;;;;;5.43;2.40;;;11.50;88.90;;;;;;5063469;28;20330;-36
2021/03/28 09:11:12;;;;;;;7.20;2.70;;;11.50;88.30;;;;;;5070469;28;20024;-39
2021/03/28 09:13:50;;;;;;;9.00;2.35;;;11.60;88.30;;;;;;5066937;28;20044;-34
2021/03/28 09:16:36;;;;;;;14.32;3.13;;;11.80;88.00;;;;;;5065095;28;20511;-38
2021/03/28 09:19:30;;;;;;;7.28;2.28;;;11.90;87.10;;;;;;5068745;28;20028;-39
2021/03/28 09:22:23;;;;;;;6.15;2.30;;;12.00;85.80;;;;;;5053874;28;20058;-43
2021/03/28 09:25:16;;;;;;;8.10;2.40;;;12.00;85.90;;;;;;5065931;28;20032;-36
2021/03/28 09:28:07;;;;;;;10.38;3.05;;;12.00;85.40;;;;;;5075589;28;20077;-36
2021/03/28 09:30:56;;;;;;;9.57;3.65;;;12.00;84.70;;;;;;5070169;28;20170;-37
2021/03/28 09:33:27;;;;;;;13.05;3.20;;;12.00;84.70;;;;;;5054633;28;20067;-38
2021/03/28 09:36:00;;;;;;;9.80;2.60;;;12.00;84.40;;;;;;5070390;28;20044;-37
2021/03/28 09:38:40;;;;;;;9.38;2.40;;;12.10;85.20;;;;;;5059749;28;20029;-37
2021/03/28 09:41:25;;;;;;;10.77;3.10;;;12.10;84.60;;;;;;5064643;28;20874;-38
2021/03/28 09:44:18;;;;;;;9.90;2.72;;;12.10;84.20;;;;;;5064380;28;20509;-39
2021/03/28 09:47:19;;;;;;;8.82;2.50;;;12.20;83.30;;;;;;5065421;28;20032;-36
2021/03/28 09:50:43;;;;;;;7.40;2.60;;;12.20;83.60;;;;;;5045587;28;20044;-36
2021/03/28 09:53:37;;;;;;;8.55;3.10;;;12.30;82.70;;;;;;5020380;28;20171;-39
2021/03/28 09:56:36;;;;;;;8.32;2.90;;;12.40;82.20;;;;;;5034513;28;20052;-40
2021/03/28 09:59:09;;;;;;;8.98;2.50;;;12.50;81.80;;;;;;5051344;28;20116;-38
2021/03/28 10:02:01;;;;;;;9.63;2.65;;;12.50;79.70;;;;;;5064351;28;20125;-38
2021/03/28 10:04:47;;;;;;;10.07;2.22;;;12.60;80.20;;;;;;5078141;28;20580;-37
2021/03/28 10:07:14;;;;;;;5.50;2.25;;;12.70;79.40;;;;;;5063207;28;20080;-40
2021/03/28 10:10:04;;;;;;;6.22;2.00;;;12.80;78.80;;;;;;5073445;28;20048;-38
2021/03/28 10:13:00;;;;;;;5.30;1.90;;;13.00;78.20;;;;;;5066567;28;20032;-36
2021/03/28 10:15:27;;;;;;;7.18;2.00;;;13.00;77.70;;;;;;5063398;28;20037;-34
2021/03/28 10:18:05;;;;;;;6.80;2.30;;;13.10;77.10;;;;;;5065159;28;20032;-34
2021/03/28 10:20:36;;;;;;;9.45;2.28;;;13.30;76.90;;;;;;5064941;28;20043;-35
2021/03/28 10:23:42;;;;;;;7.22;2.53;;;13.40;75.10;;;;;;5065344;28;20066;-37
2021/03/28 10:26:44;;;;;;;5.80;2.03;;;13.40;75.40;;;;;;5072124;28;20097;-38
2021/03/28 10:29:41;;;;;;;4.43;2.03;;;13.60;75.10;;;;;;5065046;28;20483;-37
2021/03/28 10:32:30;;;;;;;6.57;2.22;;;13.60;74.60;;;;;;5065882;28;20040;-39
2021/03/28 10:35:32;;;;;;;6.10;1.90;;;13.70;73.30;;;;;;5076072;28;20042;-39
2021/03/28 10:38:15;;;;;;;4.38;1.77;;;13.60;71.80;;;;;;5065258;28;20063;-39
2021/03/28 10:41:08;;;;;;;6.90;1.80;;;13.60;72.00;;;;;;5078291;28;20040;-37
2021/03/28 10:43:56;;;;;;;6.28;2.10;;;13.60;72.20;;;;;;5058387;28;20025;-38
2021/03/28 10:47:02;;;;;;;5.97;2.00;;;13.60;71.20;;;;;;5064257;28;20120;-37
2021/03/28 10:49:48;;;;;;;6.22;2.25;;;13.50;71.20;;;;;;5061400;28;20035;-39
2021/03/28 10:52:52;;;;;;;8.60;2.22;;;13.40;71.20;;;;;;5053683;28;20078;-39
2021/03/28 10:55:30;;;;;;;5.78;2.10;;;13.40;72.70;;;;;;5046084;28;20033;-36
2021/03/28 10:58:47;;;;;;;7.75;2.20;;;13.30;73.50;;;;;;5061607;28;20036;-37
2021/03/28 11:01:34;;;;;;;7.15;2.05;;;13.20;73.70;;;;;;5064634;28;20681;-39
2021/03/28 11:04:28;;;;;;;5.38;2.03;;;13.20;74.10;;;;;;5064304;28;20052;-38
2021/03/28 11:07:22;;;;;;;10.00;3.08;;;13.20;74.40;;;;;;5063841;28;20026;-37
2021/03/28 11:09:56;;;;;;;6.45;1.98;;;13.20;74.50;;;;;;5045217;28;20043;-38
2021/03/28 11:13:00;;;;;;;6.28;2.47;;;13.20;75.30;;;;;;5064423;28;20609;-38
2021/03/28 11:16:16;;;;;;;8.90;2.53;;;13.20;75.80;;;;;;5064213;28;20051;-38
2021/03/28 11:19:14;;;;;;;9.23;2.08;;;13.20;75.60;;;;;;5032963;28;20074;-37
2021/03/28 11:22:08;;;;;;;7.75;2.63;;;13.10;75.50;;;;;;5059912;28;20051;-35
2021/03/28 11:25:11;;;;;;;4.82;1.80;;;13.10;75.80;;;;;;5064863;28;20025;-36
2021/03/28 11:27:55;;;;;;;7.13;2.15;;;13.10;76.10;;;;;;5055194;28;20155;-39
2021/03/28 11:30:38;;;;;;;6.97;2.35;;;13.00;77.50;;;;;;5065193;28;20051;-38
2021/03/28 11:33:35;;;;;;;5.55;1.98;;;12.90;77.90;;;;;;5077288;28;20030;-35
2021/03/28 11:36:02;;;;;;;7.10;2.03;;;12.70;79.20;;;;;;5078668;28;20125;-33
2021/03/28 11:38:37;;;;;;;4.93;1.70;;;12.60;80.80;;;;;;5067709;28;20041;-38
2021/03/28 11:41:06;;;;;;;7.30;1.90;;;12.40;81.20;;;;;;5070015;28;20780;-39
2021/03/28 11:43:34;;;;;;;5.75;2.33;;;12.40;81.70;;;;;;5071420;28;20409;-35
2021/03/28 11:46:03;;;;;;;7.95;2.08;;;12.40;81.70;;;;;;5065093;28;20027;-40
2021/03/28 11:49:05;;;;;;;9.82;2.50;;;12.30;81.40;;;;;;5063432;28;20037;-36
2021/03/28 11:51:33;;;;;;;6.97;1.75;;;12.20;82.20;;;;;;5065313;28;20028;-37
2021/03/28 11:54:21;;;;;;;6.75;1.83;;;12.20;82.00;;;;;;5062632;28;20089;-38
2021/03/28 11:57:05;;;;;;;6.32;2.00;;;12.20;81.90;;;;;;5060668;28;20127;-38
2021/03/28 11:59:40;;;;;;;7.53;2.47;;;12.30;82.10;;;;;;5066340;28;20032;-39
2021/03/28 12:02:12;;;;;;;11.73;3.30;;;12.40;81.70;;;;;;5054463;28;20841;-35
2021/03/28 12:04:43;;;;;;;6.03;1.92;;;12.50;81.80;;;;;;5061341;28;20060;-37
2021/03/28 12:07:15;;;;;;;5.75;1.80;;;12.60;80.90;;;;;;5061989;28;20055;-36
2021/03/28 12:09:43;;;;;;;6.43;2.33;;;12.80;80.30;;;;;;5065714;28;20136;-38
2021/03/28 12:12:25;;;;;;;9.85;2.17;;;12.80;79.80;;;;;;5065010;28;20253;-38
2021/03/28 12:14:51;;;;;;;9.07;2.30;;;12.90;79.60;;;;;;5062051;28;20030;-37
2021/03/28 12:17:21;;;;;;;5.13;1.90;;;12.90;79.70;;;;;;5066598;28;20498;-43
2021/03/28 12:20:20;;;;;;;8.63;2.42;;;12.90;79.50;;;;;;5064332;28;20156;-40
2021/03/28 12:22:54;;;;;;;7.85;2.30;;;12.90;79.40;;;;;;5065361;28;20044;-39
2021/03/28 12:25:25;;;;;;;7.38;2.30;;;12.80;78.90;;;;;;5070567;28;20056;-42
2021/03/28 12:27:56;;;;;;;8.02;2.40;;;12.80;78.80;;;;;;5072742;28;20038;-37
2021/03/28 12:30:28;;;;;;;4.03;1.83;;;12.80;78.90;;;;;;5069449;28;20427;-34
2021/03/28 12:33:16;;;;;;;9.33;2.80;;;12.80;79.00;;;;;;5065672;28;20021;-33
2021/03/28 12:35:45;;;;;;;8.80;2.63;;;12.80;79.20;;;;;;5065183;28;20294;-43
2021/03/28 12:38:35;;;;;;;7.18;2.55;;;12.80;78.50;;;;;;5078868;28;20017;-38
2021/03/28 12:41:13;;;;;;;10.13;2.42;;;12.80;79.50;;;;;;5071478;28;20056;-37
2021/03/28 12:43:50;;;;;;;10.65;2.95;;;12.80;78.60;;;;;;5065996;28;20028;-39
2021/03/28 12:46:38;;;;;;;5.88;2.00;;;12.80;78.50;;;;;;5067044;28;20123;-35
2021/03/28 12:49:10;;;;;;;7.10;2.75;;;12.70;78.70;;;;;;5063561;28;20108;-35
2021/03/28 12:51:38;;;;;;;7.93;2.20;;;12.80;78.90;;;;;;5063250;28;20032;-37
2021/03/28 12:54:37;;;;;;;7.65;2.38;;;12.80;79.10;;;;;;5062701;28;20024;-38
2021/03/28 12:57:25;;;;;;;8.75;2.85;;;12.80;79.40;;;;;;5057723;28;20368;-34
2021/03/28 12:59:57;;;;;;;7.68;2.25;;;12.80;79.40;;;;;;5068079;28;20527;-36
2021/03/28 13:02:34;;;;;;;7.57;2.55;;;12.90;78.80;;;;;;5073623;28;20036;-36
2021/03/28 13:05:06;;;;;;;10.68;2.85;;;12.90;78.60;;;;;;5082099;28;20501;-37
2021/03/28 13:07:46;;;;;;;7.55;2.35;;;12.90;78.20;;;;;;5066333;28;20165;-37
2021/03/28 13:10:21;;;;;;;7.03;1.83;;;12.90;78.10;;;;;;5065225;28;20527;-37
2021/03/28 13:13:13;;;;;;;7.63;2.22;;;12.80;78.20;;;;;;5075078;28;20338;-36
2021/03/28 13:15:53;;;;;;;8.43;2.30;;;12.80;78.40;;;;;;5066712;28;20044;-38
2021/03/28 13:18:21;;;;;;;7.93;2.03;;;12.80;78.50;;;;;;5067210;28;20079;-38
2021/03/28 13:20:56;;;;;;;5.28;2.22;;;12.80;78.70;;;;;;5071001;28;20503;-37
2021/03/28 13:23:27;;;;;;;8.70;2.28;;;12.70;78.80;;;;;;5066310;28;20070;-36
2021/03/28 13:26:19;;;;;;;5.53;1.92;;;12.80;79.00;;;;;;5071175;28;20024;-38
2021/03/28 13:29:04;;;;;;;4.82;1.88;;;12.80;79.20;;;;;;5071356;28;20110;-37
2021/03/28 13:31:32;;;;;;;7.60;2.10;;;12.80;79.40;;;;;;5082651;28;20024;-36
2021/03/28 13:34:25;;;;;;;6.47;2.10;;;12.70;79.50;;;;;;5071939;28;20024;-36
2021/03/28 13:37:02;;;;;;;9.90;2.40;;;12.80;79.70;;;;;;5079992;28;20029;-38
2021/03/28 13:39:29;;;;;;;8.57;2.15;;;12.80;79.40;;;;;;5077312;28;20224;-35
2021/03/28 13:41:58;;;;;;;7.13;2.17;;;12.80;78.80;;;;;;5079679;28;20035;-38
2021/03/28 13:44:49;;;;;;;8.27;2.50;;;12.90;78.80;;;;;;5068566;28;20032;-38
2021/03/28 13:47:15;;;;;;;11.07;2.35;;;12.80;79.00;;;;;;5058363;28;20036;-37
2021/03/28 13:49:48;;;;;;;8.93;2.85;;;12.80;79.10;;;;;;5064588;28;20059;-39
2021/03/28 13:52:23;;;;;;;5.60;1.90;;;12.90;78.90;;;;;;5065342;28;20050;-39
2021/03/28 13:55:29;;;;;;;8.98;2.25;;;12.90;78.70;;;;;;5054415;28;20127;-36
2021/03/28 13:57:55;;;;;;;11.98;2.80;;;12.90;78.80;;;;;;5065017;28;20036;-38
2021/03/28 14:00:32;;;;;;;7.65;2.42;;;12.90;79.00;;;;;;5065788;28;20376;-38
2021/03/28 14:02:59;;;;;;;10.00;2.67;;;12.80;79.10;;;;;;5063651;28;20136;-34
2021/03/28 14:05:31;;;;;;;8.70;2.42;;;12.80;79.40;;;;;;5065415;28;20064;-37
2021/03/28 14:07:59;;;;;;;9.18;2.80;;;12.80;79.40;;;;;;5063433;28;20017;-39
2021/03/28 14:10:34;;;;;;;7.68;2.40;;;12.80;79.40;;;;;;5066068;28;20060;-39
2021/03/28 14:13:11;;;;;;;7.13;2.28;;;12.80;79.70;;;;;;5065054;28;20464;-39
2021/03/28 14:16:00;;;;;;;9.80;2.97;;;12.80;80.00;;;;;;5056017;28;20138;-38
2021/03/28 14:18:33;;;;;;;5.82;2.20;;;12.80;80.00;;;;;;5058522;28;20071;-38
2021/03/28 14:21:18;;;;;;;9.63;3.00;;;12.80;80.00;;;;;;5066344;28;20040;-39
2021/03/28 14:24:04;;;;;;;7.90;2.50;;;12.80;80.00;;;;;;5066498;28;20043;-39
2021/03/28 14:26:52;;;;;;;8.20;3.08;;;12.90;80.00;;;;;;5058780;28;20044;-37
2021/03/28 14:29:41;;;;;;;5.65;2.47;;;12.90;79.50;;;;;;5066559;28;20103;-40